Time;durP1;ratioP1;P1;durP2;ratioP2;P2;SDS_P1;SDS_P2;PMS_P1;PMS_P2;Temp;Humidity;BMP_temperature;BMP_pressure;BME280_temperature;BME280_humidity;BME280_pressure;Samples;Min_cycle;Max_cycle;Signal;HPM_P1;HPM_P2
2022/08/08 00:00:16;;;;;;;5.30;2.95;;;13.40;99.90;;;;;;4701539;30;20065;-91
2022/08/08 00:03:38;;;;;;;3.08;1.92;;;13.40;99.90;;;;;;4714859;30;20114;-90
2022/08/08 00:06:48;;;;;;;2.60;1.90;;;13.40;99.90;;;;;;4716383;30;20052;-91
2022/08/08 00:09:58;;;;;;;9.27;2.05;;;13.40;99.90;;;;;;4697247;30;20450;-91
2022/08/08 00:12:44;;;;;;;3.25;2.10;;;13.30;99.90;;;;;;4719028;30;20056;-92
2022/08/08 00:15:26;;;;;;;5.72;2.65;;;13.30;99.90;;;;;;4732804;30;20090;-91
2022/08/08 00:18:45;;;;;;;4.13;1.20;;;13.30;99.90;;;;;;4699165;30;20056;-91
2022/08/08 00:21:40;;;;;;;;;;;;;;;;;;;;;
2022/08/08 00:24:56;;;;;;;2.83;0.90;;;13.20;99.90;;;;;;4717449;30;20064;-92
2022/08/08 00:42:25;;;;;;;1.83;1.17;;;13.10;99.90;;;;;;4693965;30;20064;-91
2022/08/08 00:45:36;;;;;;;1.88;1.30;;;13.10;99.90;;;;;;4711034;30;20140;-92
2022/08/08 00:48:58;;;;;;;1.63;1.00;;;12.90;99.90;;;;;;4717497;30;20068;-91
2022/08/08 00:52:12;;;;;;;1.67;0.98;;;13.10;99.90;;;;;;4717223;30;20057;-91
2022/08/08 00:55:40;;;;;;;2.60;1.73;;;13.00;99.90;;;;;;4691758;30;20052;-91
2022/08/08 00:59:36;;;;;;;4.28;2.42;;;13.10;99.90;;;;;;4713979;30;20061;-91
2022/08/08 01:02:24;;;;;;;3.30;2.35;;;13.10;99.90;;;;;;4715755;30;20090;-91
2022/08/08 01:05:34;;;;;;;3.30;2.08;;;13.10;99.90;;;;;;4703041;30;20053;-91
2022/08/08 01:08:44;;;;;;;5.40;2.45;;;13.00;99.90;;;;;;4717361;30;20118;-91
2022/08/08 01:12:01;;;;;;;;;;;;;;;;;;;;;
2022/08/08 01:15:47;;;;;;;1.52;0.95;;;13.10;99.90;;;;;;4717594;30;20056;-92
2022/08/08 01:19:22;;;;;;;1.15;0.77;;;13.10;99.90;;;;;;4710058;30;20139;-91
2022/08/08 01:22:26;;;;;;;1.75;0.70;;;13.00;99.90;;;;;;4699345;30;20068;-91
2022/08/08 01:25:39;;;;;;;;;;;;;;;;;;;;;
2022/08/08 01:31:48;;;;;;;1.92;0.70;;;13.00;99.90;;;;;;4731418;30;20089;-92
2022/08/08 01:35:01;;;;;;;5.35;1.35;;;12.90;99.90;;;;;;4702867;30;20048;-91
2022/08/08 01:38:01;;;;;;;3.83;1.48;;;12.90;99.90;;;;;;4718821;30;20522;-91
2022/08/08 01:41:26;;;;;;;2.03;1.20;;;12.90;99.90;;;;;;4702576;30;20057;-91
2022/08/08 01:44:25;;;;;;;3.35;0.88;;;13.10;99.90;;;;;;4717111;30;20048;-92
2022/08/08 01:50:43;;;;;;;2.85;1.08;;;12.80;99.90;;;;;;4713867;30;20491;-91
2022/08/08 01:54:04;;;;;;;5.18;1.65;;;13.30;99.90;;;;;;4700807;30;20053;-91
2022/08/08 01:57:09;;;;;;;4.50;2.33;;;12.80;99.90;;;;;;4686082;30;20065;-91
2022/08/08 02:00:14;;;;;;;6.03;3.10;;;12.70;99.90;;;;;;4685451;30;20057;-91
2022/08/08 02:03:02;;;;;;;5.18;3.53;;;12.70;99.90;;;;;;4695365;30;20061;-92
2022/08/08 02:06:26;;;;;;;2.78;2.15;;;12.70;99.90;;;;;;4694932;30;20065;-92
2022/08/08 02:09:34;;;;;;;2.50;1.95;;;12.60;99.90;;;;;;4708607;30;20060;-91
2022/08/08 02:12:39;;;;;;;4.53;2.30;;;12.60;99.90;;;;;;4703411;30;20068;-91
2022/08/08 02:16:16;;;;;;;3.60;2.47;;;12.60;99.90;;;;;;4715615;30;20491;-91
2022/08/08 02:22:37;;;;;;;3.05;2.03;;;12.70;99.90;;;;;;4703030;30;20387;-91
2022/08/08 02:25:46;;;;;;;2.03;1.63;;;12.70;99.90;;;;;;4716996;30;20521;-91
2022/08/08 02:29:06;;;;;;;2.03;1.10;;;12.80;99.90;;;;;;4716464;30;20095;-91
2022/08/08 02:32:40;;;;;;;5.43;2.33;;;12.70;99.90;;;;;;4702051;30;20155;-91
2022/08/08 02:35:27;;;;;;;4.55;2.15;;;12.70;99.90;;;;;;4709250;30;20060;-91
2022/08/08 02:38:35;;;;;;;3.78;2.40;;;12.90;99.90;;;;;;4702570;30;20175;-91
2022/08/08 02:41:45;;;;;;;4.60;1.67;;;12.90;99.90;;;;;;4704012;30;20060;-91
2022/08/08 02:44:42;;;;;;;3.70;2.40;;;12.80;99.90;;;;;;4717563;30;20067;-91
2022/08/08 02:47:46;;;;;;;5.13;2.80;;;13.00;99.90;;;;;;4718776;30;20060;-91
2022/08/08 02:51:05;;;;;;;;;;;;;;;;;;;;;
2022/08/08 02:54:42;;;;;;;12.27;5.10;;;13.10;99.90;;;;;;4728991;30;20060;-91
2022/08/08 02:58:10;;;;;;;8.02;5.35;;;13.10;99.90;;;;;;4722288;30;20126;-91
2022/08/08 03:00:46;;;;;;;8.65;5.00;;;13.00;99.90;;;;;;4725317;30;20494;-91
2022/08/08 03:04:17;;;;;;;10.30;5.80;;;13.30;99.90;;;;;;4719179;30;20121;-91
2022/08/08 03:07:45;;;;;;;11.10;5.88;;;13.30;99.90;;;;;;4707620;30;20147;-91
2022/08/08 03:11:02;;;;;;;11.10;4.97;;;13.40;99.90;;;;;;4708673;30;20175;-91
2022/08/08 03:13:52;;;;;;;8.10;5.55;;;13.50;99.90;;;;;;4679493;30;20056;-91
2022/08/08 03:16:38;;;;;;;8.23;5.35;;;13.60;99.90;;;;;;4700793;30;20067;-91
2022/08/08 03:19:44;;;;;;;7.43;4.90;;;13.60;99.90;;;;;;4715054;30;20139;-91
2022/08/08 03:22:15;;;;;;;8.20;5.60;;;13.70;99.90;;;;;;4686826;30;20056;-90
2022/08/08 03:25:44;;;;;;;9.63;5.25;;;13.60;99.90;;;;;;4717205;30;20052;-91
2022/08/08 03:28:30;;;;;;;11.45;5.68;;;13.70;99.90;;;;;;4715694;30;20056;-91
2022/08/08 03:34:58;;;;;;;10.40;4.57;;;13.80;99.90;;;;;;4713192;30;20140;-91
2022/08/08 03:37:46;;;;;;;8.43;4.47;;;13.90;99.90;;;;;;4679520;30;20061;-90
2022/08/08 03:40:53;;;;;;;;;;;;;;;;;;;;;
2022/08/08 03:43:29;;;;;;;;;;;;;;;;;;;;;
2022/08/08 03:47:05;;;;;;;6.25;3.55;;;14.00;99.90;;;;;;4714997;30;20056;-91
2022/08/08 03:49:57;;;;;;;12.85;4.63;;;14.00;99.90;;;;;;4687143;30;20486;-91
2022/08/08 03:52:33;;;;;;;10.35;4.88;;;14.00;99.90;;;;;;4687380;30;20617;-91
2022/08/08 03:55:07;;;;;;;9.60;4.93;;;14.10;99.90;;;;;;4689098;30;20122;-91
2022/08/08 03:57:34;;;;;;;11.43;5.45;;;14.10;99.90;;;;;;4687780;30;20056;-91
2022/08/08 04:00:45;;;;;;;13.77;4.72;;;14.10;99.90;;;;;;4687495;30;20069;-91
2022/08/08 04:03:32;;;;;;;8.48;4.38;;;14.00;99.90;;;;;;4682943;30;20427;-92
2022/08/08 04:06:11;;;;;;;15.02;4.95;;;14.10;99.90;;;;;;4702008;30;20140;-91
2022/08/08 04:09:02;;;;;;;;;;;;;;;;;;;;;
2022/08/08 04:12:02;;;;;;;8.95;4.70;;;14.00;99.90;;;;;;4701561;30;20148;-92
2022/08/08 04:14:43;;;;;;;8.80;4.70;;;14.10;99.90;;;;;;4715447;30;20144;-91
2022/08/08 04:17:33;;;;;;;9.32;4.57;;;13.70;99.90;;;;;;4683818;30;20065;-90
2022/08/08 04:20:29;;;;;;;8.20;4.32;;;14.10;99.90;;;;;;4695264;30;20056;-92
2022/08/08 04:22:58;;;;;;;7.50;4.20;;;14.10;99.90;;;;;;4711869;30;20526;-91
2022/08/08 04:25:56;;;;;;;7.05;4.20;;;14.10;99.90;;;;;;4701226;30;20075;-92
2022/08/08 04:28:33;;;;;;;7.13;4.00;;;14.10;99.90;;;;;;4703782;30;20055;-92
2022/08/08 04:31:49;;;;;;;10.15;4.78;;;14.10;99.90;;;;;;4705000;30;20056;-92
2022/08/08 04:34:30;;;;;;;9.52;4.18;;;14.10;99.90;;;;;;4676043;30;20061;-91
2022/08/08 04:37:11;;;;;;;8.13;4.25;;;14.20;99.90;;;;;;4703803;30;20135;-92
2022/08/08 04:40:02;;;;;;;9.20;3.83;;;14.20;99.90;;;;;;4705622;30;20513;-91
2022/08/08 04:43:06;;;;;;;6.55;3.55;;;14.30;99.90;;;;;;4705914;30;20041;-92
2022/08/08 04:45:41;;;;;;;10.27;4.07;;;14.50;99.90;;;;;;4695117;30;20068;-92
2022/08/08 04:48:40;;;;;;;8.18;3.85;;;14.30;99.90;;;;;;4704275;30;20049;-92
2022/08/08 04:51:24;;;;;;;11.75;3.53;;;14.30;99.90;;;;;;4697076;30;20103;-92
2022/08/08 04:54:26;;;;;;;10.97;3.70;;;14.30;99.90;;;;;;4705647;30;20056;-92
2022/08/08 05:00:01;;;;;;;11.30;4.03;;;14.60;99.90;;;;;;4660976;30;20098;-92
2022/08/08 05:06:58;;;;;;;10.77;3.50;;;14.40;99.90;;;;;;4659335;30;20052;-92
2022/08/08 05:09:33;;;;;;;11.25;4.03;;;14.40;99.90;;;;;;4716556;30;20056;-92
2022/08/08 05:12:36;;;;;;;7.55;3.50;;;14.40;99.90;;;;;;4705194;30;20057;-92
2022/08/08 05:15:14;;;;;;;14.20;4.20;;;14.50;99.90;;;;;;4720116;30;20103;-92
2022/08/08 05:17:59;;;;;;;10.15;4.05;;;14.50;99.90;;;;;;4704061;30;20409;-92
2022/08/08 05:20:25;;;;;;;13.05;4.40;;;14.50;99.90;;;;;;4728682;24;20143;-86
2022/08/08 05:22:51;;;;;;;13.48;4.30;;;14.50;99.90;;;;;;4734077;30;20175;-87
2022/08/08 05:25:17;;;;;;;12.48;3.67;;;14.60;99.90;;;;;;4718076;30;20048;-87
2022/08/08 05:27:43;;;;;;;13.40;3.95;;;14.70;99.90;;;;;;4719261;30;20052;-86
2022/08/08 05:30:10;;;;;;;10.15;3.75;;;14.70;99.90;;;;;;4733268;30;20056;-86
2022/08/08 05:32:37;;;;;;;11.40;3.85;;;14.80;99.90;;;;;;4718135;30;20052;-86
2022/08/08 05:35:03;;;;;;;13.90;3.88;;;14.90;99.90;;;;;;4733306;30;20123;-86
2022/08/08 05:37:31;;;;;;;11.52;3.85;;;15.00;99.90;;;;;;4748033;30;20044;-86
2022/08/08 05:40:03;;;;;;;21.08;4.07;;;15.10;99.90;;;;;;4718744;30;20062;-86
2022/08/08 05:42:41;;;;;;;9.68;3.60;;;15.20;99.90;;;;;;4748670;30;20076;-86
2022/08/08 05:45:08;;;;;;;15.40;3.85;;;15.30;99.90;;;;;;4718537;30;20109;-87
2022/08/08 05:47:36;;;;;;;12.48;3.45;;;15.30;99.90;;;;;;4719250;30;20121;-87
2022/08/08 05:50:05;;;;;;;11.40;3.83;;;15.40;99.90;;;;;;4734024;30;20052;-86
2022/08/08 05:52:34;;;;;;;10.63;3.60;;;15.50;99.90;;;;;;4733709;30;20056;-86
2022/08/08 05:55:01;;;;;;;15.90;4.93;;;15.50;99.90;;;;;;4748352;30;20059;-87
2022/08/08 05:57:27;;;;;;;8.23;3.35;;;15.50;99.90;;;;;;4734302;30;20056;-88
2022/08/08 05:59:56;;;;;;;12.35;3.33;;;15.60;99.90;;;;;;4719614;30;20082;-87
2022/08/08 06:05:10;;;;;;;10.27;3.50;;;15.70;99.90;;;;;;4733570;30;20498;-86
2022/08/08 06:07:39;;;;;;;11.45;3.10;;;15.80;99.90;;;;;;4718512;30;20497;-87
2022/08/08 06:10:07;;;;;;;13.80;3.03;;;15.90;99.90;;;;;;4719323;30;20056;-86
2022/08/08 06:12:35;;;;;;;15.25;3.10;;;15.90;99.90;;;;;;4733532;30;20409;-87
2022/08/08 06:15:03;;;;;;;14.07;3.72;;;16.00;99.90;;;;;;4718917;30;20095;-87
2022/08/08 06:17:31;;;;;;;11.55;2.90;;;16.10;99.90;;;;;;4747704;30;20135;-88
2022/08/08 06:19:58;;;;;;;11.15;3.17;;;16.20;99.90;;;;;;4719374;30;20071;-87
2022/08/08 06:22:24;;;;;;;12.60;3.10;;;16.20;99.90;;;;;;4718390;30;20044;-87
2022/08/08 06:24:49;;;;;;;9.63;3.50;;;16.30;99.90;;;;;;4748757;30;20047;-87
2022/08/08 06:27:21;;;;;;;7.10;2.90;;;16.40;99.90;;;;;;4733758;30;20055;-87
2022/08/08 06:29:57;;;;;;;8.68;2.90;;;16.50;99.90;;;;;;4733830;30;20415;-87
2022/08/08 06:32:30;;;;;;;11.32;3.90;;;16.50;99.90;;;;;;4732399;30;20080;-86
2022/08/08 06:35:02;;;;;;;9.57;3.22;;;16.60;99.90;;;;;;4733207;30;20468;-87
2022/08/08 06:37:32;;;;;;;10.70;3.58;;;16.70;99.90;;;;;;4748654;30;20105;-88
2022/08/08 06:40:03;;;;;;;8.25;3.25;;;16.80;99.90;;;;;;4733271;30;20052;-86
2022/08/08 06:42:35;;;;;;;13.82;3.25;;;16.90;99.90;;;;;;4732821;30;20051;-87
2022/08/08 06:45:05;;;;;;;13.13;3.50;;;17.00;99.90;;;;;;4733153;30;20974;-86
2022/08/08 06:47:33;;;;;;;12.10;3.40;;;17.10;99.90;;;;;;4733604;30;20147;-88
2022/08/08 06:49:59;;;;;;;12.77;3.40;;;17.20;99.90;;;;;;4733643;30;20055;-87
2022/08/08 06:52:26;;;;;;;12.93;3.00;;;17.30;99.90;;;;;;4733685;30;20254;-89
2022/08/08 06:54:54;;;;;;;8.73;3.05;;;17.30;99.90;;;;;;4733287;30;20055;-87
2022/08/08 06:57:23;;;;;;;10.13;3.42;;;17.40;99.90;;;;;;4732964;30;20075;-87
2022/08/08 06:59:50;;;;;;;17.65;3.15;;;17.50;99.90;;;;;;4748472;30;20418;-88
2022/08/08 07:02:23;;;;;;;10.50;3.13;;;17.70;99.90;;;;;;4718382;30;20138;-88
2022/08/08 07:05:03;;;;;;;14.90;3.30;;;17.90;99.90;;;;;;4718627;30;20045;-88
2022/08/08 07:07:32;;;;;;;12.65;2.88;;;18.10;99.90;;;;;;4718297;30;20116;-87
2022/08/08 07:10:04;;;;;;;9.57;2.67;;;18.30;99.90;;;;;;4742576;30;20056;-86
2022/08/08 07:12:40;;;;;;;10.68;2.17;;;18.40;99.90;;;;;;4717982;30;20059;-87
2022/08/08 07:15:08;;;;;;;9.73;2.28;;;18.50;99.90;;;;;;4761922;30;20395;-86
2022/08/08 07:17:43;;;;;;;10.75;2.58;;;18.70;99.90;;;;;;4718357;30;20052;-88
2022/08/08 07:20:10;;;;;;;8.73;1.92;;;18.80;99.90;;;;;;4761944;30;20189;-90
2022/08/08 07:22:51;;;;;;;11.10;2.35;;;19.00;99.90;;;;;;4763840;30;20612;-88
2022/08/08 07:25:19;;;;;;;7.07;1.80;;;19.10;99.90;;;;;;4732988;30;20445;-87
2022/08/08 07:27:48;;;;;;;8.30;1.65;;;19.10;99.90;;;;;;4733043;30;20493;-85
2022/08/08 07:30:14;;;;;;;10.98;1.45;;;19.10;99.90;;;;;;4752440;30;20526;-86
2022/08/08 07:32:41;;;;;;;12.38;1.60;;;19.10;99.90;;;;;;4714461;30;20513;-85
2022/08/08 07:35:08;;;;;;;9.05;1.20;;;19.10;99.90;;;;;;4700119;30;20087;-86
2022/08/08 07:37:36;;;;;;;10.80;1.85;;;19.00;99.90;;;;;;4714455;30;20059;-86
2022/08/08 07:40:03;;;;;;;5.30;1.13;;;18.90;99.90;;;;;;4714245;30;20064;-86
2022/08/08 07:42:29;;;;;;;9.15;1.50;;;18.80;99.90;;;;;;4716880;30;20129;-86
2022/08/08 07:44:55;;;;;;;6.30;1.20;;;18.60;99.90;;;;;;4699828;30;20061;-86
2022/08/08 07:47:25;;;;;;;10.25;1.30;;;18.50;99.90;;;;;;4713563;30;20053;-87
2022/08/08 07:49:51;;;;;;;4.72;1.20;;;18.60;99.90;;;;;;4721731;30;20462;-86
2022/08/08 07:52:17;;;;;;;7.57;1.73;;;18.80;99.90;;;;;;4722976;30;20141;-86
2022/08/08 07:54:56;;;;;;;7.15;1.48;;;18.90;99.90;;;;;;4699971;30;20139;-87
2022/08/08 07:57:29;;;;;;;3.95;0.77;;;19.10;99.90;;;;;;4698833;30;20513;-87
2022/08/08 08:00:00;;;;;;;4.55;1.08;;;19.20;99.90;;;;;;4699697;30;20102;-86
2022/08/08 08:02:38;;;;;;;5.93;1.02;;;19.30;99.90;;;;;;4698648;30;20529;-86
2022/08/08 08:05:10;;;;;;;7.38;1.17;;;19.50;99.90;;;;;;4700190;30;20577;-87
2022/08/08 08:07:38;;;;;;;7.93;1.02;;;19.60;99.90;;;;;;4709897;30;20048;-88
2022/08/08 08:10:04;;;;;;;6.20;0.90;;;19.70;99.90;;;;;;4718857;30;20063;-88
2022/08/08 08:12:36;;;;;;;8.18;0.93;;;19.90;99.90;;;;;;4718844;30;20503;-88
2022/08/08 08:15:05;;;;;;;7.45;0.63;;;20.20;99.90;;;;;;4718104;30;20056;-87
2022/08/08 08:17:44;;;;;;;4.95;0.90;;;20.50;99.90;;;;;;4718527;30;20528;-88
2022/08/08 08:23:03;;;;;;;3.70;0.90;;;20.70;99.90;;;;;;4732355;30;20056;-87
2022/08/08 08:25:29;;;;;;;3.38;0.55;;;20.70;99.90;;;;;;4732193;30;20128;-87
2022/08/08 08:27:55;;;;;;;2.38;0.55;;;20.70;99.90;;;;;;4717489;30;20134;-87
2022/08/08 08:30:21;;;;;;;3.80;1.00;;;20.80;99.90;;;;;;4717109;30;20052;-87
2022/08/08 08:32:47;;;;;;;2.20;0.45;;;20.80;99.90;;;;;;4721749;30;20525;-87
2022/08/08 08:35:19;;;;;;;5.07;0.98;;;20.90;99.90;;;;;;4721405;30;20056;-88
2022/08/08 08:37:44;;;;;;;2.73;0.50;;;20.80;99.90;;;;;;4721229;30;20091;-87
2022/08/08 08:40:12;;;;;;;4.90;0.65;;;20.70;99.90;;;;;;4719742;30;20433;-87
2022/08/08 08:42:39;;;;;;;3.65;0.57;;;20.50;99.90;;;;;;4734211;30;20044;-85
2022/08/08 08:45:06;;;;;;;3.13;0.57;;;20.40;99.90;;;;;;4749371;30;20063;-86
2022/08/08 08:47:35;;;;;;;4.75;0.60;;;20.20;99.90;;;;;;4720201;30;20102;-86
2022/08/08 08:50:04;;;;;;;4.07;0.60;;;20.10;99.90;;;;;;4734380;30;20125;-86
2022/08/08 08:52:30;;;;;;;7.00;0.90;;;19.90;99.90;;;;;;4734154;30;20051;-85
2022/08/08 08:54:59;;;;;;;4.88;0.82;;;19.80;99.90;;;;;;4719508;30;20119;-85
2022/08/08 08:57:26;;;;;;;5.80;1.20;;;19.70;99.90;;;;;;4718556;30;20140;-86
2022/08/08 08:59:55;;;;;;;4.30;0.60;;;19.60;99.90;;;;;;4719985;30;20048;-85
2022/08/08 09:02:33;;;;;;;4.82;0.70;;;19.60;99.90;;;;;;4732445;30;20067;-86
2022/08/08 09:05:09;;;;;;;5.40;0.80;;;19.60;99.90;;;;;;4719250;30;20052;-85
2022/08/08 09:07:35;;;;;;;5.25;0.80;;;19.70;99.90;;;;;;4734378;30;20080;-86
2022/08/08 09:10:03;;;;;;;9.57;0.82;;;19.80;99.90;;;;;;4733390;30;20506;-86
2022/08/08 09:12:34;;;;;;;3.55;0.70;;;19.90;99.90;;;;;;4719343;30;20087;-86
2022/08/08 09:15:00;;;;;;;6.55;0.90;;;19.90;99.90;;;;;;4733534;30;20052;-85
2022/08/08 09:17:26;;;;;;;4.25;1.00;;;20.00;99.90;;;;;;4732277;30;20062;-85
2022/08/08 09:19:56;;;;;;;7.25;0.80;;;20.10;99.90;;;;;;4733939;30;20056;-89
2022/08/08 09:22:33;;;;;;;3.42;0.68;;;20.20;99.90;;;;;;4719601;30;20063;-86
2022/08/08 09:25:00;;;;;;;6.82;1.00;;;20.20;99.90;;;;;;4719548;30;20414;-86
2022/08/08 09:27:26;;;;;;;4.78;1.13;;;20.30;99.90;;;;;;4719519;30;20498;-88
2022/08/08 09:30:23;;;;;;;2.53;0.70;;;20.50;99.90;;;;;;4718503;30;20048;-88
2022/08/08 09:32:51;;;;;;;4.28;0.90;;;20.60;99.90;;;;;;4717155;30;20143;-87
2022/08/08 09:35:19;;;;;;;6.43;0.82;;;20.80;99.90;;;;;;4702134;30;20080;-86
2022/08/08 09:37:48;;;;;;;4.20;0.68;;;20.90;99.90;;;;;;4701782;30;20118;-87
2022/08/08 09:40:17;;;;;;;5.20;0.77;;;21.00;99.90;;;;;;4702653;30;20461;-87
2022/08/08 09:42:45;;;;;;;4.03;0.60;;;21.20;99.90;;;;;;4702048;30;20580;-87
2022/08/08 09:45:18;;;;;;;11.65;1.00;;;21.30;99.90;;;;;;4701844;30;20391;-87
2022/08/08 09:47:44;;;;;;;3.20;0.50;;;21.40;99.90;;;;;;4716217;30;20118;-87
2022/08/08 09:50:12;;;;;;;7.28;0.80;;;21.40;99.90;;;;;;4701428;30;20059;-87
2022/08/08 09:52:41;;;;;;;5.28;0.80;;;21.50;99.90;;;;;;4701202;30;20054;-87
2022/08/08 09:55:08;;;;;;;2.90;0.60;;;21.60;99.90;;;;;;4701687;30;20136;-87
2022/08/08 09:57:36;;;;;;;1.90;0.40;;;21.70;99.90;;;;;;4702491;30;20406;-87
2022/08/08 10:00:06;;;;;;;7.68;0.80;;;21.80;99.90;;;;;;4701548;30;20466;-87
2022/08/08 10:02:35;;;;;;;4.53;0.60;;;21.80;99.90;;;;;;4701433;30;20052;-87
2022/08/08 10:05:08;;;;;;;2.67;0.57;;;21.90;99.90;;;;;;4716766;30;20112;-87
2022/08/08 10:07:35;;;;;;;5.65;0.60;;;22.00;99.90;;;;;;4701036;30;20571;-86
2022/08/08 10:10:02;;;;;;;5.30;0.80;;;22.10;99.90;;;;;;4713843;30;20532;-86
2022/08/08 10:12:33;;;;;;;3.47;0.60;;;22.10;99.90;;;;;;4718369;30;20109;-87
2022/08/08 10:15:00;;;;;;;6.25;0.90;;;22.20;99.90;;;;;;4718204;30;20056;-87
2022/08/08 10:17:26;;;;;;;3.60;0.70;;;22.10;99.90;;;;;;4717407;30;20066;-86
2022/08/08 10:19:57;;;;;;;1.83;0.32;;;22.00;99.90;;;;;;4718370;30;20554;-86
2022/08/08 10:22:24;;;;;;;5.20;0.73;;;21.90;99.90;;;;;;4732617;30;20056;-87
2022/08/08 10:24:57;;;;;;;7.50;0.80;;;21.90;99.90;;;;;;4718675;30;20052;-86
2022/08/08 10:27:28;;;;;;;3.05;0.50;;;21.90;99.90;;;;;;4746617;30;20117;-87
2022/08/08 10:30:00;;;;;;;5.15;0.60;;;22.00;99.90;;;;;;4733594;30;20048;-86
2022/08/08 10:32:34;;;;;;;3.65;0.70;;;22.10;99.90;;;;;;4732705;30;20060;-87
2022/08/08 10:35:04;;;;;;;4.82;0.70;;;22.10;99.90;;;;;;4732915;30;20088;-87
2022/08/08 10:37:32;;;;;;;4.78;0.57;;;22.10;99.90;;;;;;4717854;30;20048;-87
2022/08/08 10:40:01;;;;;;;3.40;0.45;;;22.00;99.90;;;;;;4718097;30;20189;-87
2022/08/08 10:42:33;;;;;;;3.17;0.45;;;22.00;99.90;;;;;;4715147;30;20048;-87
2022/08/08 10:45:02;;;;;;;2.65;0.50;;;21.90;99.90;;;;;;4701878;30;20052;-86
2022/08/08 10:47:27;;;;;;;4.63;0.55;;;21.90;99.90;;;;;;4701359;30;20049;-87
2022/08/08 10:49:56;;;;;;;3.13;0.50;;;21.90;99.90;;;;;;4715453;30;20081;-88
2022/08/08 10:52:23;;;;;;;2.55;0.75;;;21.90;99.90;;;;;;4716097;30;20057;-88
2022/08/08 10:54:53;;;;;;;3.13;0.57;;;21.80;99.90;;;;;;4715376;30;20060;-87
2022/08/08 10:57:19;;;;;;;2.60;0.60;;;21.80;99.90;;;;;;4701238;30;20057;-87
2022/08/08 10:59:53;;;;;;;3.97;0.63;;;21.90;99.90;;;;;;4715635;30;20132;-87
2022/08/08 11:02:30;;;;;;;3.05;0.47;;;21.80;99.90;;;;;;4714100;30;20151;-87
2022/08/08 11:04:58;;;;;;;4.00;0.70;;;21.70;99.90;;;;;;4715735;30;20044;-86
2022/08/08 11:07:26;;;;;;;4.50;0.60;;;21.70;99.90;;;;;;4714408;30;20063;-87
2022/08/08 11:09:52;;;;;;;3.53;0.70;;;21.70;99.90;;;;;;4715397;30;20045;-86
2022/08/08 11:12:18;;;;;;;2.47;0.50;;;21.70;99.90;;;;;;4714713;30;20052;-86
2022/08/08 11:14:50;;;;;;;3.72;0.50;;;21.60;99.90;;;;;;4700241;30;20557;-87
2022/08/08 11:17:22;;;;;;;3.72;0.57;;;21.70;99.90;;;;;;4698956;30;20049;-87
2022/08/08 11:19:50;;;;;;;3.53;0.52;;;21.70;99.90;;;;;;4700729;30;20092;-86
2022/08/08 11:22:19;;;;;;;1.92;0.57;;;21.70;99.90;;;;;;4700135;30;20418;-87
2022/08/08 11:24:47;;;;;;;5.43;0.73;;;21.70;99.90;;;;;;4700915;30;20071;-87
2022/08/08 11:27:14;;;;;;;2.83;0.77;;;21.70;99.90;;;;;;4700274;30;20052;-87
2022/08/08 11:29:41;;;;;;;4.25;0.80;;;21.70;99.90;;;;;;4700681;30;20148;-88
2022/08/08 11:32:11;;;;;;;6.25;0.77;;;21.70;99.90;;;;;;4727761;30;20060;-85
2022/08/08 11:34:49;;;;;;;3.67;0.70;;;21.70;99.90;;;;;;4714867;30;20120;-86
2022/08/08 11:37:16;;;;;;;5.43;0.80;;;21.70;99.90;;;;;;4714636;30;20111;-86
2022/08/08 11:39:42;;;;;;;9.25;0.70;;;21.60;99.90;;;;;;4713789;30;20049;-87
2022/08/08 11:42:18;;;;;;;4.63;0.50;;;21.60;99.90;;;;;;4715684;30;20045;-88
2022/08/08 11:44:44;;;;;;;6.68;1.45;;;21.50;99.90;;;;;;4715438;30;20052;-88
2022/08/08 11:47:11;;;;;;;5.07;0.93;;;21.50;99.90;;;;;;4715481;30;20118;-87
2022/08/08 11:49:39;;;;;;;3.78;0.57;;;21.50;99.90;;;;;;4728137;30;20132;-87
2022/08/08 11:52:08;;;;;;;3.35;0.57;;;21.50;99.90;;;;;;4714527;30;20111;-87
2022/08/08 11:54:34;;;;;;;3.08;0.93;;;21.50;99.90;;;;;;4724179;30;20048;-87
2022/08/08 11:57:11;;;;;;;3.33;0.70;;;21.50;99.90;;;;;;4698952;30;20139;-88
2022/08/08 11:59:43;;;;;;;2.17;0.40;;;21.60;99.90;;;;;;4698175;30;20143;-86
2022/08/08 12:02:09;;;;;;;4.15;0.60;;;21.50;99.90;;;;;;4713665;30;20158;-87
2022/08/08 12:04:37;;;;;;;4.95;0.70;;;21.60;99.90;;;;;;4698536;30;20060;-89
2022/08/08 12:07:05;;;;;;;4.22;0.65;;;21.70;99.90;;;;;;4717100;30;20142;-88
2022/08/08 12:09:31;;;;;;;4.68;0.57;;;21.80;99.90;;;;;;4704485;30;20045;-88
2022/08/08 12:11:57;;;;;;;4.90;0.80;;;21.80;99.90;;;;;;4705608;30;20079;-89
2022/08/08 12:14:26;;;;;;;2.55;0.50;;;22.00;99.90;;;;;;4705238;30;20508;-91
2022/08/08 12:16:55;;;;;;;4.18;0.50;;;22.10;99.90;;;;;;4705452;30;20121;-90
2022/08/08 12:19:22;;;;;;;4.22;0.82;;;22.20;99.90;;;;;;4704438;30;20564;-89
2022/08/08 12:21:49;;;;;;;5.93;0.50;;;22.40;99.90;;;;;;4705160;30;20163;-88
2022/08/08 12:24:18;;;;;;;3.20;0.43;;;22.50;99.90;;;;;;4719193;30;20142;-88
2022/08/08 12:26:47;;;;;;;2.63;0.30;;;22.50;99.90;;;;;;4718712;30;20510;-88
2022/08/08 12:29:22;;;;;;;2.78;0.47;;;22.50;99.90;;;;;;4705039;30;20060;-88
2022/08/08 12:32:07;;;;;;;1.90;0.50;;;22.50;99.90;;;;;;4704683;30;20060;-89
2022/08/08 12:34:36;;;;;;;3.65;0.70;;;22.50;99.90;;;;;;4704765;30;20498;-87
2022/08/08 12:37:05;;;;;;;3.78;0.75;;;22.60;99.90;;;;;;4703953;30;20139;-87
2022/08/08 12:39:31;;;;;;;3.38;0.50;;;22.70;99.90;;;;;;4705042;30;20494;-90
2022/08/08 12:41:58;;;;;;;6.03;0.50;;;22.90;99.90;;;;;;4718116;30;20059;-91
2022/08/08 12:44:29;;;;;;;3.67;0.60;;;23.00;99.90;;;;;;4703299;30;20445;-89
2022/08/08 12:46:56;;;;;;;5.10;0.50;;;23.20;99.90;;;;;;4704200;30;20067;-89
2022/08/08 12:49:28;;;;;;;6.05;0.50;;;23.50;99.90;;;;;;4703557;30;20544;-88
2022/08/08 12:51:54;;;;;;;3.85;1.20;;;23.70;99.90;;;;;;4704266;30;20045;-88
2022/08/08 12:54:24;;;;;;;3.08;0.40;;;23.60;99.90;;;;;;4704265;30;20060;-89
2022/08/08 12:56:50;;;;;;;3.50;0.70;;;23.60;99.90;;;;;;4703982;30;20052;-88
2022/08/08 12:59:38;;;;;;;3.15;0.57;;;23.50;99.90;;;;;;4713655;30;20128;-91
2022/08/08 13:02:05;;;;;;;1.08;0.30;;;23.30;99.90;;;;;;4703134;30;20061;-87
2022/08/08 13:04:32;;;;;;;4.05;0.57;;;23.30;99.90;;;;;;4718373;30;20135;-87
2022/08/08 13:07:04;;;;;;;5.20;0.57;;;23.20;99.90;;;;;;4718599;30;20056;-88
2022/08/08 13:09:37;;;;;;;2.33;0.47;;;23.20;99.90;;;;;;4702999;30;20139;-89
2022/08/08 13:12:26;;;;;;;2.28;0.50;;;23.20;99.90;;;;;;4718568;30;20056;-89
2022/08/08 13:15:04;;;;;;;3.38;0.63;;;23.40;99.90;;;;;;4718159;30;20088;-93
2022/08/08 13:17:32;;;;;;;2.00;0.57;;;23.40;99.90;;;;;;4715445;30;20099;-87
2022/08/08 13:19:58;;;;;;;4.50;0.50;;;23.50;99.90;;;;;;4717987;30;20568;-89
2022/08/08 13:22:24;;;;;;;6.40;0.47;;;23.40;99.90;;;;;;4718217;30;20065;-89
2022/08/08 13:24:53;;;;;;;1.75;0.43;;;23.30;99.90;;;;;;4732884;30;20075;-89
2022/08/08 13:27:25;;;;;;;7.57;0.55;;;23.40;99.90;;;;;;4717503;30;20139;-89
2022/08/08 13:29:55;;;;;;;2.97;0.50;;;23.20;99.90;;;;;;4721670;30;20040;-87
2022/08/08 13:32:34;;;;;;;5.40;0.57;;;23.10;99.90;;;;;;4719621;30;20059;-87
2022/08/08 13:35:02;;;;;;;2.60;0.40;;;23.00;99.90;;;;;;4720846;30;20054;-87
2022/08/08 13:37:28;;;;;;;5.30;0.60;;;22.90;99.90;;;;;;4720230;30;20052;-89
2022/08/08 13:39:56;;;;;;;4.72;0.50;;;22.90;99.90;;;;;;4721358;30;20049;-90
2022/08/08 13:42:24;;;;;;;5.63;0.50;;;22.90;99.90;;;;;;4720237;30;20052;-89
2022/08/08 13:44:55;;;;;;;4.72;0.70;;;22.90;99.90;;;;;;4720165;30;20117;-88
2022/08/08 13:47:27;;;;;;;3.08;0.50;;;22.90;99.90;;;;;;4719942;30;20091;-90
2022/08/08 13:50:03;;;;;;;2.90;0.73;;;22.90;99.90;;;;;;4720953;30;20515;-88
2022/08/08 13:52:29;;;;;;;4.45;0.50;;;22.90;99.90;;;;;;4720017;30;20146;-89
2022/08/08 13:54:57;;;;;;;3.72;0.47;;;23.00;99.90;;;;;;4719948;30;20134;-87
2022/08/08 13:57:28;;;;;;;4.00;0.60;;;22.90;99.90;;;;;;4719100;30;20056;-88
2022/08/08 14:00:16;;;;;;;3.90;0.73;;;22.90;99.90;;;;;;4719225;30;20059;-88
2022/08/08 14:02:42;;;;;;;2.78;0.50;;;22.80;99.90;;;;;;4720333;30;20130;-89
2022/08/08 14:05:11;;;;;;;3.38;0.47;;;22.70;99.90;;;;;;4734067;30;20159;-88
2022/08/08 14:07:39;;;;;;;1.67;0.40;;;22.70;99.90;;;;;;4719734;30;20116;-87
2022/08/08 14:10:08;;;;;;;3.22;0.60;;;22.60;99.90;;;;;;4716398;30;20092;-87
2022/08/08 14:12:35;;;;;;;3.75;0.60;;;22.60;99.90;;;;;;4714778;30;20052;-85
2022/08/08 14:15:03;;;;;;;3.53;0.65;;;22.60;99.90;;;;;;4729811;30;20052;-86
2022/08/08 14:17:29;;;;;;;3.78;0.70;;;22.60;99.90;;;;;;4700284;30;20063;-90
2022/08/08 14:20:02;;;;;;;5.03;0.60;;;22.60;99.90;;;;;;4702580;30;20099;-88
2022/08/08 14:22:28;;;;;;;6.20;0.60;;;22.70;99.90;;;;;;4702246;30;20059;-88
2022/08/08 14:25:01;;;;;;;12.77;0.65;;;22.60;99.90;;;;;;4716982;30;20056;-87
2022/08/08 14:27:28;;;;;;;;;;;22.60;99.90;;;;;;4702500;30;20049;-88
2022/08/08 14:29:57;;;;;;;4.68;0.52;;;22.60;99.90;;;;;;4716906;30;19930;-86
2022/08/08 14:32:23;;;;;;;3.40;0.75;;;22.60;99.90;;;;;;4701726;30;20056;-87
2022/08/08 14:34:52;;;;;;;4.47;0.63;;;22.50;99.90;;;;;;4724400;30;20118;-88